createdAt,value
2022-08-26T00:09:04.298Z,25.6
2022-08-26T00:24:20.934Z,24.6
2022-08-26T00:39:29.935Z,24.4
2022-08-26T00:54:39.523Z,24.3
2022-08-26T01:09:52.266Z,24.2
2022-08-26T01:25:03.489Z,24.1
2022-08-26T01:40:13.403Z,24.1
2022-08-26T01:55:32.019Z,24
2022-08-26T02:10:43.486Z,23.9
2022-08-26T02:25:52.476Z,23.8
2022-08-26T02:41:01.681Z,23.7
2022-08-26T02:56:10.943Z,23.6
2022-08-26T03:11:21.066Z,23.5
2022-08-26T03:26:31.146Z,23.4
2022-08-26T03:41:40.600Z,23.4
2022-08-26T03:56:50.403Z,23.3
2022-08-26T04:11:59.002Z,23.2
2022-08-26T04:27:08.575Z,23.1
2022-08-26T04:42:23.332Z,23.1
2022-08-26T04:57:35.784Z,23
2022-08-26T05:12:45.256Z,23.1
2022-08-26T05:27:55.643Z,23.2
2022-08-26T05:43:04.981Z,23.3
2022-08-26T05:58:18.763Z,23.3
2022-08-26T06:13:28.035Z,23.1
2022-08-26T06:28:43.488Z,23
2022-08-26T06:43:55.066Z,22.9
2022-08-26T06:59:04.436Z,22.8
2022-08-26T07:14:21.104Z,22.9
2022-08-26T07:29:31.344Z,23
2022-08-26T07:44:40.600Z,23.1
2022-08-26T07:59:49.855Z,23.4
2022-08-26T08:14:59.063Z,23.6
2022-08-26T08:30:09.776Z,23.8
2022-08-26T08:45:24.034Z,24.1
2022-08-26T09:00:35.571Z,24.4
2022-08-26T09:15:49.649Z,24.7
2022-08-26T09:30:59.443Z,25.1
2022-08-26T09:46:10.493Z,25.4
2022-08-26T10:01:21.668Z,25.8
2022-08-26T10:16:32.343Z,26.1
2022-08-26T10:31:44.750Z,26.4
2022-08-26T10:47:01.713Z,26.7
2022-08-26T11:02:14.644Z,26.9
2022-08-26T11:17:24.973Z,27.2
2022-08-26T11:32:35.215Z,27.5
2022-08-26T11:47:45.979Z,28
2022-08-26T12:03:02.162Z,28.7
2022-08-26T12:18:12.854Z,30.9
2022-08-26T12:33:23.343Z,31
2022-08-26T12:48:32.021Z,30.1
2022-08-26T13:03:41.623Z,30
2022-08-26T13:18:49.664Z,29.4
2022-08-26T13:33:58.719Z,28.7
2022-08-26T13:49:07.926Z,28.3
2022-08-26T14:04:17.617Z,28.3
2022-08-26T14:19:36.558Z,28.2
2022-08-26T14:34:45.869Z,28.3
2022-08-26T14:49:55.353Z,28.9
2022-08-26T15:05:06.035Z,30.9
2022-08-26T15:20:16.144Z,31.9
2022-08-26T15:35:25.601Z,31
2022-08-26T15:50:34.401Z,29.5
2022-08-26T16:05:43.938Z,28.5
2022-08-26T16:20:55.441Z,27.9
2022-08-26T16:36:23.918Z,27.3
2022-08-26T16:51:32.871Z,26.8
2022-08-26T17:06:48.531Z,26.5
2022-08-26T17:21:57.911Z,26.2
2022-08-26T17:37:07.092Z,25.9
2022-08-26T17:52:15.702Z,25.5
2022-08-26T18:07:24.675Z,25.3
2022-08-26T18:22:33.896Z,25
2022-08-26T18:37:43.247Z,24.9
2022-08-26T18:52:52.353Z,24.6
2022-08-26T19:08:01.678Z,24.5
2022-08-26T19:23:28.485Z,24.4
2022-08-26T19:38:42.808Z,24.2
2022-08-26T19:53:52.415Z,24.2
2022-08-26T20:09:02.258Z,24.1
2022-08-26T20:24:11.481Z,24
2022-08-26T20:39:22.346Z,23.8
2022-08-26T20:54:32.251Z,23.7
2022-08-26T21:09:41.544Z,23.5
